Mitchell, NE (69357)

10:36 PM MDT on May 25, 2015 (GMT -0600)
Warner Street | | Change Station
CLOSE
Current Station
Personal Weather Station
Location: Mitchell, NE
Elevation: 4039 ft
Nearby Weather Stations

Elev 4039 ft 41.96 °N, 103.79 °W | Updated 25 seconds ago

Partly Cloudy
Partly Cloudy
49.3 °F
Feels Like 49 °F
N
0.0
Wind Variable Wind from North
Gusts 0.0 mph

Today
High -- | Low -- °F
--% Chance of Precip.
Yesterday
High -- | Low -- °F
Precip. -- in
5:26 AM 8:18 PM
First Quarter, 54% visible
Pressure 29.91 in
Visibility 10.0 miles
Clouds Few 7500 ft
Windchill 49 °F
Dew Point 48 °F
Humidity 96%
Rainfall 1.79 in
Snow Depth Not available.
UV 0 out of 12
Pollen .90 out of 12
Air Quality Not available.
Flu Activity No Activity
METAR KBFF 260353Z AUTO 31004KT 10SM FEW075 10/09 A2994 RMK AO2 SLP126 T01000094

More Conditions Fewer Conditions

Pressure 29.91 in
Visibility 10.0 miles
Clouds Few 7500 ft
Windchill 49 °F
Dew Point 48 °F
Humidity 96%
Rainfall 1.79 in
Snow Depth Not available.
UV 0 out of 12
Pollen .90 out of 12
Air Quality Not available.
Flu Activity No Activity
METAR KBFF 260353Z AUTO 31004KT 10SM FEW075 10/09 A2994 RMK AO2 SLP126 T01000094

More Conditions Fewer Conditions

10-Day Weather Forecast

Almanac

Astronomy

May. 25, 2015 Rise Set
Actual Time
Civil Twilight
Nautical Twilight
Astronomical Twilight
Moon
Length of Visible Light
Length of Day
Tomorrow will be .
, % of the Moon is Illuminated

Today's Extremes

State Highs State Lows

Community

WunderPhotos

Upload Photos

1,824,278 photos uploaded!

WunderBlogs® & News

Nearby

Air Quality

  Air Quality AQ Index Pollutant
Not available.

Snow Depth

Station Depth Elevation

Earthquake Activity

City Distance Mag. Time & Date
Minimum magnitude displayed is 2.5.

Coastal Water Temperatures

Place Temperature

Stations

Nearby Weather Stations

Station Location Temp. Windchill Dew Point Humidity Wind Precip. Elev Updated Type